createdAt,value
2024-03-02T00:00:27.952Z,2.72
2024-03-02T00:03:17.793Z,2.58
2024-03-02T00:06:10.296Z,2.88
2024-03-02T00:09:01.585Z,2.33
2024-03-02T00:11:51.136Z,2.47
2024-03-02T00:14:40.849Z,2.50
2024-03-02T00:17:30.344Z,2.40
2024-03-02T00:20:24.192Z,2.10
2024-03-02T00:23:18.549Z,2.55
2024-03-02T00:26:08.680Z,2.70
2024-03-02T00:29:02.768Z,2.75
2024-03-02T00:31:52.416Z,2.45
2024-03-02T00:34:42.398Z,2.47
2024-03-02T00:37:32.329Z,2.50
2024-03-02T00:40:21.850Z,2.58
2024-03-02T00:43:30.290Z,2.60
2024-03-02T00:46:21.878Z,2.50
2024-03-02T00:49:22.311Z,2.65
2024-03-02T00:52:12.649Z,2.83
2024-03-02T00:55:02.334Z,2.60
2024-03-02T00:57:52.061Z,3.10
2024-03-02T01:00:41.584Z,2.67
2024-03-02T01:03:31.223Z,2.70
2024-03-02T01:06:21.362Z,2.60
2024-03-02T01:09:10.882Z,2.60
2024-03-02T01:12:00.306Z,2.80
2024-03-02T01:14:50.019Z,2.90
2024-03-02T01:17:39.481Z,3.10
2024-03-02T01:20:29.479Z,3.00
2024-03-02T01:23:19.001Z,3.10
2024-03-02T01:26:09.501Z,3.03
2024-03-02T01:28:58.888Z,2.92
2024-03-02T01:31:48.797Z,3.15
2024-03-02T01:34:38.145Z,3.00
2024-03-02T01:37:30.218Z,3.53
2024-03-02T01:40:19.690Z,3.75
2024-03-02T01:43:10.116Z,3.50
2024-03-02T01:45:59.924Z,3.80
2024-03-02T01:48:50.107Z,3.92
2024-03-02T01:51:39.634Z,4.82
2024-03-02T01:54:30.015Z,3.80
2024-03-02T01:57:20.328Z,4.20
2024-03-02T02:00:11.898Z,4.45
2024-03-02T02:03:01.837Z,4.50
2024-03-02T02:05:51.308Z,4.45
2024-03-02T02:08:41.156Z,4.65
2024-03-02T02:11:31.145Z,4.45
2024-03-02T02:14:21.291Z,4.07
2024-03-02T02:17:10.736Z,4.25
2024-03-02T02:20:00.331Z,4.13
2024-03-02T02:23:00.371Z,4.20
2024-03-02T02:25:49.967Z,4.57
2024-03-02T02:28:39.506Z,4.25
2024-03-02T02:31:29.387Z,3.60
2024-03-02T02:34:18.804Z,3.60
2024-03-02T02:37:08.502Z,3.30
2024-03-02T02:39:58.109Z,3.92
2024-03-02T02:42:47.749Z,4.70
2024-03-02T02:45:37.342Z,4.30
2024-03-02T02:48:26.917Z,4.40
2024-03-02T02:51:16.468Z,4.95
2024-03-02T02:54:06.012Z,3.40
2024-03-02T02:56:55.404Z,3.60
2024-03-02T02:59:44.837Z,3.90
2024-03-02T03:02:34.335Z,3.80
2024-03-02T03:05:23.808Z,3.90
2024-03-02T03:08:13.158Z,3.58
2024-03-02T03:11:02.617Z,3.63
2024-03-02T03:13:52.092Z,3.65
2024-03-02T03:16:41.529Z,3.40
2024-03-02T03:19:31.052Z,4.13
2024-03-02T03:22:20.468Z,3.80
2024-03-02T03:25:12.848Z,4.00
2024-03-02T03:28:04.634Z,4.07
2024-03-02T03:30:54.094Z,4.10
2024-03-02T03:33:43.583Z,3.45
2024-03-02T03:36:33.020Z,3.58
2024-03-02T03:39:22.935Z,3.60
2024-03-02T03:42:12.419Z,3.58
2024-03-02T03:45:01.882Z,3.42
2024-03-02T03:47:51.352Z,3.10
2024-03-02T03:50:40.841Z,3.58
2024-03-02T03:53:30.319Z,2.90
2024-03-02T03:56:19.718Z,3.83
2024-03-02T03:59:09.139Z,3.17
2024-03-02T04:01:58.902Z,3.38
2024-03-02T04:04:48.438Z,2.40
2024-03-02T04:07:42.432Z,3.17
2024-03-02T04:10:32.540Z,3.40
2024-03-02T04:13:22.066Z,3.40
2024-03-02T04:16:11.500Z,3.40
2024-03-02T04:19:01.073Z,3.70
2024-03-02T04:21:50.542Z,3.67
2024-03-02T04:24:40.081Z,3.50
2024-03-02T04:27:29.548Z,2.95
2024-03-02T04:30:19.475Z,3.42
2024-03-02T04:33:12.223Z,3.40
2024-03-02T04:36:01.744Z,4.18
2024-03-02T04:38:51.129Z,3.70
2024-03-02T04:41:40.613Z,2.60
2024-03-02T04:44:30.078Z,3.80
2024-03-02T04:47:19.462Z,2.92
2024-03-02T04:50:10.083Z,2.42
2024-03-02T04:52:59.540Z,2.40
2024-03-02T04:56:11.778Z,3.60
2024-03-02T04:59:01.158Z,6.00
2024-03-02T05:01:52.103Z,7.15
2024-03-02T05:04:41.605Z,6.70
2024-03-02T05:07:31.109Z,6.60
2024-03-02T05:10:20.621Z,6.10
2024-03-02T05:13:10.256Z,6.57
2024-03-02T05:15:59.803Z,6.50
2024-03-02T05:18:49.444Z,7.70
2024-03-02T05:21:38.924Z,8.30
2024-03-02T05:24:31.984Z,6.60
2024-03-02T05:27:21.418Z,3.72
2024-03-02T05:30:11.853Z,4.00
2024-03-02T05:33:01.449Z,8.30
2024-03-02T05:35:52.388Z,2.40
2024-03-02T05:38:42.095Z,4.70
2024-03-02T05:41:31.503Z,2.35
2024-03-02T05:44:21.733Z,2.38
2024-03-02T05:47:11.244Z,2.10
2024-03-02T05:50:00.788Z,2.10
2024-03-02T05:52:50.134Z,2.20
2024-03-02T05:55:39.660Z,2.40
2024-03-02T05:58:55.382Z,2.25
2024-03-02T06:01:46.419Z,2.47
2024-03-02T06:04:35.918Z,2.30
2024-03-02T06:07:25.458Z,2.20
2024-03-02T06:10:15.252Z,2.15
2024-03-02T06:13:05.001Z,2.17
2024-03-02T06:15:55.152Z,2.20
2024-03-02T06:18:44.598Z,2.47
2024-03-02T06:21:33.961Z,2.38
2024-03-02T06:24:23.472Z,2.30
2024-03-02T06:27:12.848Z,2.10
2024-03-02T06:30:02.275Z,2.20
2024-03-02T06:32:51.714Z,2.45
2024-03-02T06:35:41.452Z,2.22
2024-03-02T06:38:31.136Z,2.40
2024-03-02T06:41:20.590Z,2.38
2024-03-02T06:44:10.019Z,2.03
2024-03-02T06:46:59.680Z,2.20
2024-03-02T06:49:49.397Z,2.45
2024-03-02T06:52:38.954Z,2.30
2024-03-02T06:55:32.263Z,2.40
2024-03-02T06:58:21.651Z,2.00
2024-03-02T07:01:12.082Z,2.33
2024-03-02T07:04:01.654Z,2.00
2024-03-02T07:06:51.287Z,2.38
2024-03-02T07:09:41.173Z,1.85
2024-03-02T07:12:30.623Z,2.10
2024-03-02T07:15:38.209Z,1.80
2024-03-02T07:18:28.070Z,2.00
2024-03-02T07:21:17.728Z,2.05
2024-03-02T07:24:08.790Z,2.10
2024-03-02T07:26:58.315Z,2.10
2024-03-02T07:29:47.921Z,2.05
2024-03-02T07:32:37.538Z,2.03
2024-03-02T07:35:29.676Z,2.10
2024-03-02T07:38:19.283Z,2.10
2024-03-02T07:41:10.014Z,2.10
2024-03-02T07:43:59.430Z,1.98
2024-03-02T07:46:52.254Z,2.17
2024-03-02T07:49:41.772Z,2.30
2024-03-02T07:52:31.440Z,2.00
2024-03-02T07:55:20.895Z,2.22
2024-03-02T07:58:10.946Z,2.55
2024-03-02T08:01:03.161Z,2.42
2024-03-02T08:03:53.070Z,2.00
2024-03-02T08:06:42.655Z,2.30
2024-03-02T08:09:32.178Z,2.40
2024-03-02T08:12:21.970Z,2.30
2024-03-02T08:15:11.707Z,2.25
2024-03-02T08:18:01.573Z,2.10
2024-03-02T08:20:51.029Z,2.28
2024-03-02T08:23:41.946Z,2.03
2024-03-02T08:26:33.712Z,2.35
2024-03-02T08:29:23.136Z,2.22
2024-03-02T08:32:12.608Z,2.20
2024-03-02T08:35:02.220Z,2.40
2024-03-02T08:37:51.844Z,2.20
2024-03-02T08:40:41.504Z,2.35
2024-03-02T08:43:30.941Z,2.40
2024-03-02T08:46:21.151Z,2.28
2024-03-02T08:49:10.658Z,2.10
2024-03-02T08:52:00.147Z,2.30
2024-03-02T08:54:49.586Z,2.08
2024-03-02T08:57:39.542Z,2.20
2024-03-02T09:00:29.809Z,2.20
2024-03-02T09:03:19.911Z,2.25
2024-03-02T09:06:09.303Z,2.42
2024-03-02T09:09:01.422Z,2.20
2024-03-02T09:11:51.004Z,2.55
2024-03-02T09:14:40.620Z,2.25
2024-03-02T09:17:30.211Z,2.30
2024-03-02T09:20:19.637Z,2.40
2024-03-02T09:23:09.100Z,2.13
2024-03-02T09:25:58.667Z,2.20
2024-03-02T09:28:48.519Z,2.53
2024-03-02T09:31:45.611Z,2.30
2024-03-02T09:34:35.186Z,2.28
2024-03-02T09:37:24.698Z,2.80
2024-03-02T09:40:16.063Z,2.22
2024-03-02T09:43:06.445Z,2.17
2024-03-02T09:45:56.369Z,2.35
2024-03-02T09:48:47.589Z,2.30
2024-03-02T09:51:37.644Z,2.20
2024-03-02T09:54:27.266Z,2.30
2024-03-02T09:57:17.507Z,2.30
2024-03-02T10:00:08.026Z,2.20
2024-03-02T10:02:57.413Z,2.10
2024-03-02T10:05:46.780Z,2.30
2024-03-02T10:08:50.726Z,2.38
2024-03-02T10:11:41.294Z,2.30
2024-03-02T10:14:30.758Z,2.20
2024-03-02T10:17:20.578Z,2.42
2024-03-02T10:20:26.706Z,2.20
2024-03-02T10:23:18.718Z,2.20
2024-03-02T10:26:20.983Z,2.10
2024-03-02T10:29:12.508Z,2.22
2024-03-02T10:32:05.245Z,2.35
2024-03-02T10:34:54.720Z,2.40
2024-03-02T10:37:45.084Z,2.55
2024-03-02T10:40:34.785Z,2.38
2024-03-02T10:43:24.653Z,2.45
2024-03-02T10:46:15.218Z,2.20
2024-03-02T10:49:08.459Z,2.20
2024-03-02T10:51:58.993Z,2.20
2024-03-02T10:54:48.940Z,2.30
2024-03-02T10:57:50.964Z,2.22
2024-03-02T11:00:41.760Z,2.28
2024-03-02T11:03:36.509Z,2.20
2024-03-02T11:06:29.591Z,2.10
2024-03-02T11:09:22.574Z,2.22
2024-03-02T11:12:51.123Z,2.30
2024-03-02T11:15:45.311Z,2.05
2024-03-02T11:18:35.928Z,2.17
2024-03-02T11:21:25.541Z,2.10
2024-03-02T11:24:27.265Z,2.35
2024-03-02T11:27:18.261Z,2.30
2024-03-02T11:30:09.150Z,2.10
2024-03-02T11:32:58.893Z,2.20
2024-03-02T11:35:49.896Z,2.25
2024-03-02T11:38:39.860Z,2.20
2024-03-02T11:41:29.728Z,1.98
2024-03-02T11:44:19.660Z,2.00
2024-03-02T11:47:10.487Z,2.33
2024-03-02T11:50:01.432Z,2.20
2024-03-02T11:52:50.913Z,2.00
2024-03-02T11:55:46.152Z,2.38
2024-03-02T11:58:38.841Z,1.98
2024-03-02T12:01:29.720Z,2.10
2024-03-02T12:04:19.313Z,2.00
2024-03-02T12:07:08.894Z,2.45
2024-03-02T12:10:05.420Z,2.30
2024-03-02T12:13:01.419Z,2.20
2024-03-02T12:15:55.299Z,1.90
2024-03-02T12:18:45.991Z,2.58
2024-03-02T12:21:35.631Z,2.00
2024-03-02T12:24:25.614Z,2.15
2024-03-02T12:27:17.584Z,1.92
2024-03-02T12:30:10.496Z,2.10
2024-03-02T12:33:00.161Z,2.05
2024-03-02T12:35:51.217Z,2.30
2024-03-02T12:38:46.631Z,2.00
2024-03-02T12:41:36.536Z,2.30
2024-03-02T12:44:26.018Z,2.17
2024-03-02T12:47:15.942Z,2.30
2024-03-02T12:50:07.227Z,2.38
2024-03-02T12:53:00.352Z,2.97
2024-03-02T12:55:51.160Z,2.30
2024-03-02T12:58:43.830Z,2.28
2024-03-02T13:01:34.120Z,2.15
2024-03-02T13:04:31.382Z,2.20
2024-03-02T13:07:21.714Z,2.30
2024-03-02T13:10:11.610Z,2.55
2024-03-02T13:13:01.411Z,2.40
2024-03-02T13:15:50.956Z,2.58
2024-03-02T13:18:45.158Z,2.50
2024-03-02T13:21:34.555Z,2.20
2024-03-02T13:24:24.196Z,2.40
2024-03-02T13:27:13.788Z,2.85
2024-03-02T13:30:05.121Z,2.50
2024-03-02T13:32:55.377Z,2.70
2024-03-02T13:35:44.721Z,2.67
2024-03-02T13:38:34.110Z,2.30
2024-03-02T13:41:23.863Z,2.67
2024-03-02T13:44:13.334Z,2.45
2024-03-02T13:47:03.335Z,2.72
2024-03-02T13:49:53.307Z,2.33
2024-03-02T13:52:42.782Z,2.15
2024-03-02T13:55:32.214Z,2.20
2024-03-02T13:58:23.036Z,2.30
2024-03-02T14:01:12.550Z,2.40
2024-03-02T14:04:02.134Z,2.38
2024-03-02T14:06:51.536Z,2.15
2024-03-02T14:09:40.949Z,2.92
2024-03-02T14:12:30.306Z,2.20
2024-03-02T14:15:21.858Z,2.17
2024-03-02T14:18:12.615Z,2.20
2024-03-02T14:21:02.041Z,2.20
2024-03-02T14:23:52.243Z,2.20
2024-03-02T14:26:42.949Z,2.45
2024-03-02T14:29:32.425Z,2.20
2024-03-02T14:32:21.912Z,2.28
2024-03-02T14:35:12.500Z,2.20
2024-03-02T14:38:02.057Z,2.90
2024-03-02T14:40:51.977Z,2.35
2024-03-02T14:43:42.665Z,2.10
2024-03-02T14:46:33.557Z,2.55
2024-03-02T14:49:23.025Z,2.30
2024-03-02T14:52:12.557Z,2.50
2024-03-02T14:55:02.239Z,2.28
2024-03-02T14:57:52.015Z,2.40
2024-03-02T15:00:41.593Z,2.22
2024-03-02T15:03:31.295Z,2.20
2024-03-02T15:06:21.036Z,2.58
2024-03-02T15:09:10.752Z,2.30
2024-03-02T15:12:00.265Z,2.20
2024-03-02T15:14:50.090Z,2.33
2024-03-02T15:17:39.707Z,2.10
2024-03-02T15:20:29.264Z,2.10
2024-03-02T15:23:18.808Z,2.42
2024-03-02T15:26:09.707Z,2.28
2024-03-02T15:29:01.280Z,2.13
2024-03-02T15:31:50.668Z,2.22
2024-03-02T15:34:40.368Z,2.15
2024-03-02T15:37:30.027Z,2.40
2024-03-02T15:40:19.660Z,2.25
2024-03-02T15:43:09.106Z,2.30
2024-03-02T15:45:59.179Z,2.28
2024-03-02T15:48:48.904Z,2.45
2024-03-02T15:51:42.786Z,2.33
2024-03-02T15:54:32.621Z,3.42
2024-03-02T15:57:25.178Z,2.38
2024-03-02T16:00:15.154Z,2.30
2024-03-02T16:03:05.038Z,2.30
2024-03-02T16:05:54.527Z,2.40
2024-03-02T16:08:44.012Z,2.63
2024-03-02T16:11:34.194Z,2.10
2024-03-02T16:14:23.755Z,2.30
2024-03-02T16:17:13.339Z,2.53
2024-03-02T16:20:03.164Z,2.50
2024-03-02T16:22:52.714Z,2.38
2024-03-02T16:25:43.423Z,2.30
2024-03-02T16:28:33.112Z,2.47
2024-03-02T16:31:22.911Z,2.22
2024-03-02T16:34:12.795Z,2.70
2024-03-02T16:37:02.419Z,2.28
2024-03-02T16:39:51.991Z,2.15
2024-03-02T16:42:42.220Z,2.40
2024-03-02T16:45:33.880Z,2.40
2024-03-02T16:48:23.449Z,2.35
2024-03-02T16:51:13.536Z,2.30
2024-03-02T16:54:04.630Z,2.35
2024-03-02T16:56:54.135Z,2.10
2024-03-02T16:59:43.855Z,2.42
2024-03-02T17:02:33.394Z,2.15
2024-03-02T17:05:23.957Z,2.50
2024-03-02T17:08:13.446Z,2.85
2024-03-02T17:11:02.886Z,2.67
2024-03-02T17:13:54.644Z,2.88
2024-03-02T17:16:44.274Z,3.00
2024-03-02T17:19:33.737Z,3.22
2024-03-02T17:22:23.158Z,2.92
2024-03-02T17:25:12.639Z,4.40
2024-03-02T17:28:28.865Z,6.88
2024-03-02T17:31:19.922Z,2.70
2024-03-02T17:34:09.584Z,2.95
2024-03-02T17:36:59.273Z,2.70
2024-03-02T17:39:50.069Z,2.47
2024-03-02T17:42:39.738Z,2.50
2024-03-02T17:45:29.407Z,2.90
2024-03-02T17:48:19.404Z,2.70
2024-03-02T17:51:12.335Z,2.60
2024-03-02T17:54:02.044Z,2.70
2024-03-02T17:56:51.418Z,2.88
2024-03-02T17:59:41.173Z,2.63
2024-03-02T18:02:32.154Z,2.80
2024-03-02T18:05:21.700Z,3.00
2024-03-02T18:08:11.240Z,2.72
2024-03-02T18:11:02.288Z,2.70
2024-03-02T18:13:51.819Z,2.65
2024-03-02T18:16:41.314Z,2.78
2024-03-02T18:19:32.257Z,3.45
2024-03-02T18:22:22.352Z,2.92
2024-03-02T18:25:12.136Z,2.63
2024-03-02T18:28:02.109Z,2.60
2024-03-02T18:30:51.677Z,3.25
2024-03-02T18:33:41.495Z,2.95
2024-03-02T18:36:31.076Z,3.08
2024-03-02T18:39:20.464Z,2.90
2024-03-02T18:42:10.136Z,2.90
2024-03-02T18:45:00.418Z,2.60
2024-03-02T18:47:49.967Z,2.70
2024-03-02T18:50:39.526Z,2.83
2024-03-02T18:53:28.962Z,2.33
2024-03-02T18:56:18.472Z,3.03
2024-03-02T18:59:07.932Z,3.00
2024-03-02T19:01:57.560Z,2.50
2024-03-02T19:04:47.142Z,2.72
2024-03-02T19:07:36.944Z,3.58
2024-03-02T19:10:26.434Z,3.40
2024-03-02T19:13:16.054Z,2.30
2024-03-02T19:16:05.847Z,2.63
2024-03-02T19:18:55.933Z,2.50
2024-03-02T19:21:46.144Z,2.50
2024-03-02T19:24:39.776Z,2.67
2024-03-02T19:27:29.189Z,2.30
2024-03-02T19:30:19.193Z,2.53
2024-03-02T19:33:09.648Z,2.60
2024-03-02T19:35:59.098Z,2.70
2024-03-02T19:38:48.597Z,2.50
2024-03-02T19:41:37.971Z,2.40
2024-03-02T19:44:33.606Z,2.58
2024-03-02T19:47:24.166Z,2.50
2024-03-02T19:50:16.311Z,2.40
2024-03-02T19:53:05.984Z,2.50
2024-03-02T19:55:55.779Z,2.30
2024-03-02T19:58:45.268Z,2.35
2024-03-02T20:01:34.922Z,2.42
2024-03-02T20:04:26.893Z,2.45
2024-03-02T20:07:17.545Z,2.47
2024-03-02T20:10:08.688Z,2.35
2024-03-02T20:12:58.367Z,2.38
2024-03-02T20:15:48.084Z,2.58
2024-03-02T20:18:37.875Z,2.58
2024-03-02T20:21:27.361Z,2.42
2024-03-02T20:24:17.003Z,2.40
2024-03-02T20:27:08.715Z,2.47
2024-03-02T20:29:59.048Z,2.38
2024-03-02T20:32:48.629Z,2.85
2024-03-02T20:35:38.370Z,2.30
2024-03-02T20:38:27.795Z,2.40
2024-03-02T20:41:21.577Z,2.10
2024-03-02T20:44:11.169Z,2.10
2024-03-02T20:47:00.692Z,2.33
2024-03-02T20:49:50.266Z,2.42
2024-03-02T20:52:39.795Z,2.30
2024-03-02T20:55:29.367Z,2.28
2024-03-02T20:58:18.917Z,2.28
2024-03-02T21:01:08.685Z,2.10
2024-03-02T21:03:58.445Z,2.22
2024-03-02T21:06:48.051Z,2.10
2024-03-02T21:09:37.992Z,2.33
2024-03-02T21:12:27.853Z,2.20
2024-03-02T21:15:17.765Z,2.30
2024-03-02T21:18:07.476Z,2.38
2024-03-02T21:20:57.133Z,2.10
2024-03-02T21:23:46.710Z,2.40
2024-03-02T21:26:43.846Z,2.35
2024-03-02T21:29:33.321Z,2.10
2024-03-02T21:32:22.981Z,2.20
2024-03-02T21:35:12.697Z,2.30
2024-03-02T21:38:05.488Z,2.40
2024-03-02T21:40:54.999Z,2.30
2024-03-02T21:43:44.738Z,2.50
2024-03-02T21:46:34.312Z,2.20
2024-03-02T21:49:23.865Z,2.40
2024-03-02T21:52:13.413Z,2.90
2024-03-02T21:55:03.010Z,2.30
2024-03-02T21:57:54.382Z,2.40
2024-03-02T22:00:43.958Z,2.50
2024-03-02T22:03:34.172Z,2.50
2024-03-02T22:06:23.728Z,2.47
2024-03-02T22:09:15.960Z,2.40
2024-03-02T22:12:05.966Z,2.50
2024-03-02T22:14:55.571Z,2.40
2024-03-02T22:17:45.174Z,2.28
2024-03-02T22:20:34.839Z,2.45
2024-03-02T22:23:24.835Z,2.40
2024-03-02T22:26:14.255Z,2.42
2024-03-02T22:29:03.813Z,2.60
2024-03-02T22:31:53.493Z,2.50
2024-03-02T22:34:43.029Z,3.00
2024-03-02T22:37:32.852Z,3.03
2024-03-02T22:40:24.936Z,2.80
2024-03-02T22:43:14.726Z,3.20
2024-03-02T22:46:04.415Z,2.97
2024-03-02T22:48:53.980Z,3.08
2024-03-02T22:51:43.613Z,2.90
2024-03-02T22:54:33.193Z,2.92
2024-03-02T22:57:22.728Z,3.15
2024-03-02T23:00:36.164Z,4.70
2024-03-02T23:03:26.199Z,4.90
2024-03-02T23:06:15.722Z,2.72
2024-03-02T23:09:07.132Z,2.65
2024-03-02T23:11:56.609Z,2.60
2024-03-02T23:14:46.103Z,2.40
2024-03-02T23:17:39.144Z,2.20
2024-03-02T23:20:28.701Z,2.80
2024-03-02T23:23:18.143Z,2.70
2024-03-02T23:26:08.661Z,2.30
2024-03-02T23:28:58.698Z,4.25
2024-03-02T23:31:48.487Z,3.80
2024-03-02T23:34:37.964Z,4.13
2024-03-02T23:37:27.641Z,5.43
2024-03-02T23:40:20.335Z,4.43
2024-03-02T23:43:11.056Z,3.80
2024-03-02T23:46:00.644Z,2.40
2024-03-02T23:48:50.149Z,2.50
2024-03-02T23:51:39.890Z,2.30
2024-03-02T23:54:29.470Z,2.30
2024-03-02T23:57:19.401Z,2.45
